createdAt,value
2023-01-17T00:03:00.507Z,14.43
2023-01-17T00:08:23.754Z,14.76
2023-01-17T00:13:29.419Z,14.81
2023-01-17T00:18:39.610Z,14.85
2023-01-17T00:23:56.872Z,15.73
2023-01-17T00:28:59.130Z,16.63
2023-01-17T00:34:05.006Z,17.78
2023-01-17T00:39:09.753Z,19.08
2023-01-17T00:44:30.686Z,19.93
2023-01-17T00:49:52.687Z,20.58
2023-01-17T00:55:13.371Z,20.47
2023-01-17T01:00:34.676Z,20.62
2023-01-17T01:05:57.239Z,20.73
2023-01-17T01:11:18.120Z,21.61
2023-01-17T01:16:39.141Z,22.70
2023-01-17T01:22:01.219Z,23.15
2023-01-17T01:27:22.230Z,23.30
2023-01-17T01:32:45.060Z,23.61
2023-01-17T01:37:49.937Z,23.45
2023-01-17T01:42:54.547Z,22.88
2023-01-17T01:48:01.063Z,23.85
2023-01-17T01:53:08.216Z,21.96
2023-01-17T01:58:16.219Z,22.22
2023-01-17T02:03:23.482Z,21.49
2023-01-17T02:08:28.241Z,21.16
2023-01-17T02:13:34.719Z,20.81
2023-01-17T02:18:50.754Z,20.59
2023-01-17T02:24:16.953Z,21.87
2023-01-17T02:29:48.774Z,20.42
2023-01-17T02:34:59.743Z,20.56
2023-01-17T02:40:09.017Z,20.19
2023-01-17T02:45:16.190Z,19.61
2023-01-17T02:50:23.851Z,21.06
2023-01-17T02:55:38.337Z,21.52
2023-01-17T03:00:52.003Z,20.71
2023-01-17T03:06:01.943Z,20.34
2023-01-17T03:11:08.337Z,21.41
2023-01-17T03:16:18.668Z,20.52
2023-01-17T03:21:25.553Z,19.26
2023-01-17T03:26:28.977Z,20.43
2023-01-17T03:31:32.347Z,27.34
2023-01-17T03:36:39.482Z,19.26
2023-01-17T03:41:42.880Z,21.53
2023-01-17T03:46:46.350Z,30.70
2023-01-17T03:51:51.106Z,18.38
2023-01-17T03:56:54.465Z,18.24
2023-01-17T04:02:00.097Z,20.11
2023-01-17T04:07:07.359Z,28.11
2023-01-17T04:12:15.866Z,25.99
2023-01-17T04:17:20.888Z,17.17
2023-01-17T04:22:25.711Z,21.25
2023-01-17T04:27:29.081Z,19.77
2023-01-17T04:32:32.431Z,18.72
2023-01-17T04:37:37.241Z,17.72
2023-01-17T04:42:40.593Z,16.45
2023-01-17T04:47:44.204Z,16.10
2023-01-17T04:52:48.999Z,17.58
2023-01-17T04:57:57.439Z,15.87
2023-01-17T05:03:03.598Z,16.40
2023-01-17T05:08:09.641Z,19.42
2023-01-17T05:13:14.309Z,30.33
2023-01-17T05:18:19.369Z,40.01
2023-01-17T05:23:25.444Z,21.51
2023-01-17T05:28:28.935Z,20.50
2023-01-17T05:33:32.317Z,19.86
2023-01-17T05:38:37.268Z,20.86
2023-01-17T05:43:40.657Z,21.78
2023-01-17T05:48:44.426Z,26.38
2023-01-17T05:53:49.248Z,25.67
2023-01-17T05:58:54.905Z,23.54
2023-01-17T06:03:58.345Z,21.81
2023-01-17T06:09:05.505Z,22.97
2023-01-17T06:14:11.448Z,24.84
2023-01-17T06:19:14.877Z,24.93
2023-01-17T06:24:22.201Z,22.92
2023-01-17T06:29:25.972Z,23.59
2023-01-17T06:34:29.455Z,23.07
2023-01-17T06:39:36.849Z,25.93
2023-01-17T06:44:42.549Z,24.28
2023-01-17T06:49:45.907Z,23.74
2023-01-17T06:54:54.295Z,38.89
2023-01-17T07:00:02.591Z,33.12
2023-01-17T07:05:06.287Z,28.21
2023-01-17T07:10:11.737Z,24.30
2023-01-17T07:15:21.606Z,31.81
2023-01-17T07:20:27.590Z,24.77
2023-01-17T07:25:32.409Z,25.11
2023-01-17T07:30:36.738Z,23.97
2023-01-17T07:35:41.391Z,23.79
2023-01-17T07:40:48.644Z,29.33
2023-01-17T07:45:52.130Z,23.11
2023-01-17T07:50:58.778Z,29.93
2023-01-17T07:56:04.408Z,36.41
2023-01-17T08:01:13.138Z,24.30
2023-01-17T08:06:18.430Z,22.83
2023-01-17T08:11:25.413Z,23.61
2023-01-17T08:16:29.865Z,24.05
2023-01-17T08:21:36.029Z,23.51
2023-01-17T08:26:42.924Z,24.63
2023-01-17T08:31:46.329Z,22.44
2023-01-17T08:36:53.933Z,23.60
2023-01-17T08:41:58.839Z,20.80
2023-01-17T08:47:02.407Z,24.87
2023-01-17T08:52:08.191Z,19.94
2023-01-17T08:57:12.950Z,19.95
2023-01-17T09:02:21.389Z,21.76
2023-01-17T09:07:27.594Z,22.76
2023-01-17T09:12:36.843Z,19.95
2023-01-17T09:17:44.673Z,22.01
2023-01-17T09:22:50.588Z,26.76
2023-01-17T09:27:55.310Z,23.05
2023-01-17T09:33:03.339Z,30.07
2023-01-17T09:38:07.017Z,24.29
2023-01-17T09:43:23.243Z,14.55
2023-01-17T09:48:34.217Z,13.77
2023-01-17T09:53:43.991Z,16.15
2023-01-17T09:58:58.187Z,14.92
2023-01-17T10:04:11.140Z,16.41
2023-01-17T10:09:35.142Z,19.67
2023-01-17T10:15:03.058Z,21.84
2023-01-17T10:20:21.373Z,20.26
2023-01-17T10:25:33.897Z,21.32
2023-01-17T10:30:40.325Z,19.83
2023-01-17T10:35:54.707Z,29.65
2023-01-17T10:41:01.910Z,29.48
2023-01-17T10:46:16.308Z,20.87
2023-01-17T10:51:34.031Z,20.67
2023-01-17T10:56:40.788Z,20.70
2023-01-17T11:01:47.702Z,20.57
2023-01-17T11:07:11.258Z,21.60
2023-01-17T11:12:20.232Z,20.64
2023-01-17T11:17:23.860Z,21.32
2023-01-17T11:22:34.007Z,20.76
2023-01-17T11:27:39.551Z,21.74
2023-01-17T11:32:52.742Z,23.52
2023-01-17T11:38:04.489Z,24.10
2023-01-17T11:43:21.995Z,23.57
2023-01-17T11:48:25.408Z,23.25
2023-01-17T11:53:33.092Z,23.20
2023-01-17T11:58:42.416Z,22.66
2023-01-17T12:04:04.600Z,22.14
2023-01-17T12:09:23.050Z,22.14
2023-01-17T12:14:36.374Z,27.82
2023-01-17T12:19:54.395Z,23.16
2023-01-17T12:25:08.537Z,20.34
2023-01-17T12:30:22.743Z,18.98
2023-01-17T12:35:31.649Z,19.60
2023-01-17T12:40:44.406Z,22.16
2023-01-17T12:45:54.723Z,25.96
2023-01-17T12:51:06.829Z,24.43
2023-01-17T12:56:17.528Z,30.29
2023-01-17T13:01:25.137Z,24.71
2023-01-17T13:06:33.770Z,21.13
2023-01-17T13:11:46.044Z,20.38
2023-01-17T13:16:57.962Z,22.25
2023-01-17T13:22:07.381Z,20.44
2023-01-17T13:27:29.487Z,21.19
2023-01-17T13:32:49.962Z,26.74
2023-01-17T13:38:13.041Z,20.97
2023-01-17T13:43:20.998Z,23.36
2023-01-17T13:48:32.901Z,24.24
2023-01-17T13:53:59.960Z,22.49
2023-01-17T13:59:20.737Z,20.78
2023-01-17T14:04:43.589Z,23.13
2023-01-17T14:09:51.473Z,22.67
2023-01-17T14:14:57.004Z,31.52
2023-01-17T14:20:21.450Z,23.65
2023-01-17T14:25:29.909Z,22.04
2023-01-17T14:30:37.544Z,23.27
2023-01-17T14:35:42.345Z,22.98
2023-01-17T14:40:54.056Z,22.20
2023-01-17T14:46:03.302Z,22.62
2023-01-17T14:51:13.533Z,23.10
2023-01-17T14:56:20.825Z,23.05
2023-01-17T15:01:24.647Z,22.22
2023-01-17T15:06:36.684Z,40.87
2023-01-17T15:11:46.027Z,25.21
2023-01-17T15:16:52.003Z,25.19
2023-01-17T15:21:55.908Z,23.06
2023-01-17T15:27:03.473Z,24.38
2023-01-17T15:32:09.267Z,24.24
2023-01-17T15:37:24.130Z,26.98
2023-01-17T15:42:32.273Z,28.84
2023-01-17T15:47:39.178Z,30.52
2023-01-17T15:52:49.223Z,30.54
2023-01-17T15:57:54.056Z,30.34
2023-01-17T16:02:59.025Z,31.63
2023-01-17T16:08:25.404Z,52.00
2023-01-17T16:13:34.771Z,35.84
2023-01-17T16:18:38.614Z,32.34
2023-01-17T16:23:42.930Z,31.91
2023-01-17T16:28:47.945Z,31.17
2023-01-17T16:33:51.842Z,41.48
2023-01-17T16:38:55.307Z,33.04
2023-01-17T16:44:01.716Z,33.28
2023-01-17T16:49:07.215Z,39.79
2023-01-17T16:54:12.777Z,34.13
2023-01-17T16:59:17.594Z,32.61
2023-01-17T17:04:21.158Z,33.86
2023-01-17T17:09:26.989Z,35.98
2023-01-17T17:14:33.932Z,38.22
2023-01-17T17:19:37.431Z,45.57
2023-01-17T17:24:40.874Z,39.60
2023-01-17T17:29:50.598Z,41.07
2023-01-17T17:34:54.076Z,40.27
2023-01-17T17:40:03.616Z,52.92
2023-01-17T17:45:11.141Z,43.14
2023-01-17T17:50:14.611Z,38.73
2023-01-17T17:55:19.083Z,40.57
2023-01-17T18:00:24.121Z,39.95
2023-01-17T18:05:27.571Z,41.85
2023-01-17T18:10:31.005Z,43.82
2023-01-17T18:15:35.815Z,45.64
2023-01-17T18:20:39.915Z,54.83
2023-01-17T18:25:48.579Z,58.12
2023-01-17T18:30:53.427Z,59.51
2023-01-17T18:36:00.286Z,68.31
2023-01-17T18:41:06.856Z,63.29
2023-01-17T18:46:17.494Z,65.87
2023-01-17T18:51:21.896Z,68.22
2023-01-17T18:56:25.308Z,69.09
2023-01-17T19:01:33.630Z,67.62
2023-01-17T19:06:41.978Z,67.59
2023-01-17T19:11:47.644Z,78.32
2023-01-17T19:16:52.480Z,71.74
2023-01-17T19:21:55.909Z,72.03
2023-01-17T19:27:02.747Z,71.99
2023-01-17T19:32:09.792Z,73.08
2023-01-17T19:37:15.757Z,75.77
2023-01-17T19:42:20.376Z,83.44
2023-01-17T19:47:31.740Z,81.31
2023-01-17T19:52:35.643Z,88.64
2023-01-17T19:57:40.646Z,77.08
2023-01-17T20:02:45.532Z,76.84
2023-01-17T20:07:52.529Z,76.71
2023-01-17T20:12:55.984Z,74.69
2023-01-17T20:18:04.515Z,74.40
2023-01-17T20:23:07.947Z,71.36
2023-01-17T20:28:11.404Z,67.57
2023-01-17T20:33:16.168Z,68.20
2023-01-17T20:38:19.542Z,68.17
2023-01-17T20:43:22.984Z,67.51
2023-01-17T20:48:30.869Z,64.83
2023-01-17T20:53:34.780Z,66.80
2023-01-17T20:58:39.436Z,70.58
2023-01-17T21:03:48.002Z,69.51
2023-01-17T21:08:53.359Z,79.14
2023-01-17T21:13:58.931Z,81.64
2023-01-17T21:19:04.400Z,86.03
2023-01-17T21:24:08.031Z,82.53
2023-01-17T21:29:12.300Z,80.66
2023-01-17T21:34:17.081Z,77.37
2023-01-17T21:39:37.388Z,73.96
2023-01-17T21:44:43.685Z,85.05
2023-01-17T21:49:48.517Z,74.30
2023-01-17T21:55:09.642Z,70.75
2023-01-17T22:00:15.474Z,70.13
2023-01-17T22:05:20.679Z,75.38
2023-01-17T22:10:24.126Z,83.20
2023-01-17T22:15:29.827Z,100.64
2023-01-17T22:20:35.159Z,97.58
2023-01-17T22:25:38.542Z,84.21
2023-01-17T22:30:42.152Z,77.85
2023-01-17T22:35:49.149Z,77.39
2023-01-17T22:40:55.341Z,71.50
2023-01-17T22:45:59.772Z,70.05
2023-01-17T22:51:08.726Z,72.12
2023-01-17T22:56:13.604Z,88.47
2023-01-17T23:01:20.817Z,91.11
2023-01-17T23:06:27.371Z,82.68
2023-01-17T23:11:42.659Z,81.68
2023-01-17T23:17:08.490Z,83.45
2023-01-17T23:22:19.096Z,83.52
2023-01-17T23:27:41.399Z,81.00
2023-01-17T23:32:46.834Z,78.70
2023-01-17T23:38:09.156Z,96.21
2023-01-17T23:43:28.695Z,80.26
2023-01-17T23:48:32.615Z,72.51
2023-01-17T23:53:41.002Z,65.72
2023-01-17T23:58:47.384Z,64.14
